Time;durP1;ratioP1;P1;durP2;ratioP2;P2;SDS_P1;SDS_P2;PMS_P1;PMS_P2;Temp;Humidity;BMP_temperature;BMP_pressure;BME280_temperature;BME280_humidity;BME280_pressure;Samples;Min_cycle;Max_cycle;Signal;HPM_P1;HPM_P2
2023/04/29 15:58:35;;;;;;;5.10;4.60;;;19.70;63.40;;;;;;1489691;23;20222;31
2023/04/29 16:01:03;;;;;;;5.07;4.30;;;19.70;63.50;;;;;;4968477;28;20242;-72
2023/04/29 16:06:53;;;;;;;3.73;3.43;;;19.70;63.40;;;;;;4972512;28;20924;-71
2023/04/29 16:09:20;;;;;;;3.93;3.53;;;19.70;63.50;;;;;;4971504;28;20200;-72
2023/04/29 16:11:47;;;;;;;3.83;3.43;;;19.70;62.70;;;;;;4972657;28;20217;-72
2023/04/29 16:14:15;;;;;;;3.57;3.23;;;19.70;62.70;;;;;;4966003;28;20205;-72
2023/04/29 16:16:42;;;;;;;3.40;3.10;;;19.70;62.70;;;;;;4978381;28;20204;-71
2023/04/29 16:19:09;;;;;;;3.50;3.03;;;19.70;62.60;;;;;;4973007;28;20207;-72
2023/04/29 16:21:36;;;;;;;3.50;3.20;;;19.70;61.80;;;;;;4976530;28;20311;-72
2023/04/29 16:24:03;;;;;;;4.10;3.70;;;19.70;62.10;;;;;;4974347;28;20315;-72
2023/04/29 16:26:30;;;;;;;3.50;3.20;;;19.70;62.50;;;;;;4975015;28;20283;-72
2023/04/29 16:28:58;;;;;;;4.07;3.70;;;19.70;62.50;;;;;;4974586;28;20225;-72
2023/04/29 16:31:27;;;;;;;3.93;3.63;;;19.70;62.30;;;;;;4967727;28;20260;-73
2023/04/29 16:33:55;;;;;;;5.27;4.77;;;19.70;62.30;;;;;;4978633;28;20652;-72
2023/04/29 16:36:22;;;;;;;6.73;6.13;;;19.70;63.20;;;;;;4984107;28;20292;-72
2023/04/29 16:38:50;;;;;;;6.73;6.13;;;19.70;62.90;;;;;;4980050;28;20638;-67
2023/04/29 16:41:17;;;;;;;4.63;4.23;;;19.70;63.00;;;;;;4973139;28;20220;-69
2023/04/29 16:43:43;;;;;;;5.00;4.60;;;19.70;63.00;;;;;;4972957;28;20635;-69
2023/04/29 16:46:11;;;;;;;5.20;4.70;;;19.70;63.30;;;;;;4973464;28;20694;-70
2023/04/29 16:48:39;;;;;;;4.47;4.07;;;19.70;63.00;;;;;;4973207;28;20230;-70
2023/04/29 16:51:06;;;;;;;3.93;3.53;;;19.70;63.30;;;;;;4971932;28;20696;-71
2023/04/29 16:53:33;;;;;;;3.97;3.40;;;19.70;63.60;;;;;;4977237;28;20230;-69
2023/04/29 16:56:00;;;;;;;4.27;3.57;;;19.70;63.30;;;;;;4981081;28;20287;-69
2023/04/29 16:58:27;;;;;;;3.57;3.27;;;19.70;63.00;;;;;;4971516;28;20283;-68
2023/04/29 17:00:54;;;;;;;3.60;3.30;;;19.60;63.10;;;;;;4969684;28;20247;-68
2023/04/29 17:03:21;;;;;;;3.63;3.33;;;19.60;63.00;;;;;;4978308;28;20220;-68
2023/04/29 17:05:50;;;;;;;3.50;3.20;;;19.60;62.70;;;;;;4974594;28;20742;-67
2023/04/29 17:08:17;;;;;;;3.40;3.10;;;19.60;63.00;;;;;;4972420;28;20287;-68
2023/04/29 17:10:43;;;;;;;3.53;3.23;;;19.60;62.90;;;;;;4972170;28;20210;-68
2023/04/29 17:13:10;;;;;;;3.60;3.30;;;19.60;63.00;;;;;;4971046;28;20300;-68
2023/04/29 17:15:37;;;;;;;3.40;3.10;;;19.60;62.60;;;;;;4971705;28;20205;-68
2023/04/29 17:18:04;;;;;;;3.40;3.07;;;19.60;63.50;;;;;;4969664;28;20205;-68
2023/04/29 17:20:31;;;;;;;3.40;3.10;;;19.70;63.50;;;;;;4973645;28;20796;-68
2023/04/29 17:22:59;;;;;;;3.50;3.20;;;19.70;63.50;;;;;;4973089;28;20200;-67
2023/04/29 17:25:26;;;;;;;3.00;2.80;;;19.70;63.30;;;;;;4963140;28;20240;-68
2023/04/29 17:27:53;;;;;;;3.90;3.20;;;19.70;63.20;;;;;;4975787;28;20236;-68
2023/04/29 17:30:20;;;;;;;3.50;3.20;;;19.80;63.30;;;;;;4976165;28;20200;-68
2023/04/29 17:32:48;;;;;;;3.50;3.17;;;19.80;63.00;;;;;;4970520;28;20200;-68
2023/04/29 17:35:15;;;;;;;3.27;2.97;;;19.80;62.80;;;;;;4971834;28;20768;-68
2023/04/29 17:37:42;;;;;;;3.27;2.97;;;19.80;63.30;;;;;;4971466;28;20455;-68
2023/04/29 17:40:11;;;;;;;3.60;3.30;;;19.80;63.40;;;;;;4971031;28;20295;-68
2023/04/29 17:42:40;;;;;;;3.27;2.97;;;19.70;63.20;;;;;;4976828;28;20204;-68
2023/04/29 17:45:08;;;;;;;3.53;3.23;;;19.70;62.80;;;;;;4938099;28;20262;-67
2023/04/29 17:47:37;;;;;;;4.00;3.53;;;19.70;63.00;;;;;;4973865;28;20503;-68
2023/04/29 17:50:04;;;;;;;3.83;3.53;;;19.70;62.80;;;;;;4945472;28;20212;-69
2023/04/29 17:52:30;;;;;;;4.13;3.73;;;19.70;62.60;;;;;;4968047;28;20474;-68
2023/04/29 17:54:58;;;;;;;4.43;3.93;;;19.60;62.70;;;;;;4974093;28;20204;-68
2023/04/29 17:57:27;;;;;;;4.27;3.87;;;19.50;62.60;;;;;;4964638;28;20676;-68
2023/04/29 17:59:55;;;;;;;4.20;3.80;;;19.50;63.10;;;;;;4984461;28;20331;-68
2023/04/29 18:02:22;;;;;;;4.00;3.67;;;19.50;63.30;;;;;;4966132;28;20222;-68
2023/04/29 18:04:49;;;;;;;4.30;3.90;;;19.40;63.40;;;;;;4970699;28;20219;-68
2023/04/29 18:07:15;;;;;;;4.20;3.80;;;19.40;63.80;;;;;;4964158;28;20292;-67
2023/04/29 18:09:42;;;;;;;4.00;3.63;;;19.30;64.00;;;;;;4952216;29;20740;-68
2023/04/29 18:12:09;;;;;;;3.50;3.20;;;19.20;64.00;;;;;;4970620;28;20228;-68
2023/04/29 18:14:38;;;;;;;3.33;3.03;;;19.20;64.30;;;;;;4972511;28;20478;-68
2023/04/29 18:17:04;;;;;;;3.50;3.20;;;19.20;64.80;;;;;;4978958;28;20211;-66
2023/04/29 18:19:31;;;;;;;4.20;3.80;;;19.20;65.20;;;;;;4971909;28;20666;-68
2023/04/29 18:22:00;;;;;;;4.40;4.00;;;19.20;65.50;;;;;;4972328;28;20205;-68
2023/04/29 18:24:28;;;;;;;5.27;3.90;;;19.10;65.70;;;;;;4974272;28;20546;-68
2023/04/29 18:26:56;;;;;;;4.90;4.40;;;19.10;65.70;;;;;;4971236;28;20470;-68
2023/04/29 18:29:22;;;;;;;5.50;4.97;;;19.10;66.10;;;;;;4970486;28;20319;-69
2023/04/29 18:31:53;;;;;;;5.50;4.97;;;19.00;66.30;;;;;;4970982;28;20805;-68
2023/04/29 18:34:20;;;;;;;5.27;4.50;;;19.00;66.40;;;;;;4971903;28;20208;-68
2023/04/29 18:36:47;;;;;;;4.73;4.10;;;19.00;66.60;;;;;;4972429;28;20288;-68
2023/04/29 18:39:13;;;;;;;4.30;3.90;;;18.90;67.00;;;;;;4970680;28;20205;-69
2023/04/29 18:41:40;;;;;;;4.10;3.73;;;18.90;67.10;;;;;;4971709;28;20212;-68
2023/04/29 18:44:07;;;;;;;4.33;3.93;;;18.90;67.30;;;;;;4973014;28;20976;-68
2023/04/29 18:46:34;;;;;;;4.00;3.60;;;18.80;67.50;;;;;;4971685;28;20458;-68
2023/04/29 18:49:02;;;;;;;4.63;3.80;;;18.80;67.80;;;;;;4971044;28;20324;-68
2023/04/29 18:51:29;;;;;;;4.60;3.67;;;18.80;68.00;;;;;;4971011;28;20208;-68
2023/04/29 18:53:56;;;;;;;5.77;3.43;;;18.70;68.10;;;;;;4971488;28;20299;-68
2023/04/29 18:56:23;;;;;;;3.73;3.43;;;18.70;68.50;;;;;;4971678;28;20462;-68
2023/04/29 18:58:51;;;;;;;3.80;3.50;;;18.70;68.80;;;;;;4977256;28;20827;-68
2023/04/29 19:01:18;;;;;;;4.10;3.80;;;18.60;69.00;;;;;;4973931;28;20458;-68
2023/04/29 19:03:45;;;;;;;4.40;3.50;;;18.60;69.20;;;;;;4979866;28;21064;-68
2023/04/29 19:06:13;;;;;;;4.93;3.70;;;18.60;69.40;;;;;;4974508;28;20456;-68
2023/04/29 19:08:40;;;;;;;4.83;3.37;;;18.60;69.60;;;;;;4972835;28;20984;-68
2023/04/29 19:11:07;;;;;;;3.90;3.50;;;18.50;69.50;;;;;;4974055;28;20483;-68
2023/04/29 19:13:34;;;;;;;3.70;3.40;;;18.50;69.60;;;;;;4974702;28;20463;-68
2023/04/29 19:16:01;;;;;;;3.70;3.40;;;18.50;69.60;;;;;;4974039;28;20487;-68
2023/04/29 19:18:28;;;;;;;4.40;4.00;;;18.40;69.50;;;;;;4984645;28;20554;-68
2023/04/29 19:20:55;;;;;;;5.90;4.27;;;18.40;69.40;;;;;;4980523;28;20517;-68
2023/04/29 19:23:24;;;;;;;4.13;3.73;;;18.50;69.50;;;;;;4973434;28;20468;-68
2023/04/29 19:25:50;;;;;;;4.03;3.73;;;18.50;69.50;;;;;;4984720;28;21006;-66
2023/04/29 19:28:18;;;;;;;4.17;3.83;;;18.40;69.20;;;;;;4983559;28;20489;-68
2023/04/29 19:30:44;;;;;;;3.57;3.27;;;18.40;69.20;;;;;;4977300;28;20456;-68
2023/04/29 19:33:11;;;;;;;3.20;2.90;;;18.40;69.20;;;;;;4974664;28;20554;-68
2023/04/29 19:35:38;;;;;;;3.97;3.67;;;18.40;69.30;;;;;;4984956;28;20470;-68
2023/04/29 19:38:05;;;;;;;4.27;3.93;;;18.40;69.50;;;;;;4975801;28;20538;-68
2023/04/29 19:40:33;;;;;;;4.37;3.97;;;18.40;69.50;;;;;;4973615;28;20498;-68
2023/04/29 19:43:00;;;;;;;4.30;3.93;;;18.40;69.70;;;;;;4980819;28;20456;-66
2023/04/29 19:45:27;;;;;;;4.80;4.40;;;18.40;69.70;;;;;;4982010;28;20454;-66
2023/04/29 19:47:54;;;;;;;5.50;5.00;;;18.40;69.80;;;;;;4981497;28;20539;-66
2023/04/29 19:50:21;;;;;;;5.50;5.00;;;18.40;69.80;;;;;;4988934;28;20227;-66
2023/04/29 19:52:48;;;;;;;7.00;6.00;;;18.40;69.80;;;;;;4985225;28;20981;-66
2023/04/29 19:55:16;;;;;;;6.27;5.67;;;18.40;70.20;;;;;;4979786;28;20474;-65
2023/04/29 19:57:44;;;;;;;5.80;5.30;;;18.40;69.90;;;;;;4973234;28;20479;-66
2023/04/29 20:00:13;;;;;;;6.53;5.93;;;18.40;69.90;;;;;;4973943;28;20464;-66
2023/04/29 20:02:40;;;;;;;6.70;6.00;;;18.40;70.00;;;;;;4979210;28;20468;-65
2023/04/29 20:05:09;;;;;;;7.40;6.57;;;18.30;69.80;;;;;;4994120;28;20458;-67
2023/04/29 20:07:36;;;;;;;6.90;6.17;;;18.30;70.00;;;;;;4983021;28;20534;-66
2023/04/29 20:10:04;;;;;;;7.50;6.80;;;18.30;70.10;;;;;;4974125;28;20487;-68
2023/04/29 20:12:31;;;;;;;8.83;7.13;;;18.30;71.10;;;;;;4973545;28;20967;-68
2023/04/29 20:14:59;;;;;;;8.57;7.30;;;18.30;70.30;;;;;;4973653;28;20455;-68
2023/04/29 20:17:27;;;;;;;7.90;7.10;;;18.20;70.40;;;;;;4984751;28;20451;-68
2023/04/29 20:19:54;;;;;;;7.93;7.13;;;18.20;70.50;;;;;;4972597;28;20967;-67
2023/04/29 20:22:21;;;;;;;8.87;7.47;;;18.20;70.40;;;;;;4973045;28;20467;-68
2023/04/29 20:24:48;;;;;;;8.77;7.60;;;18.20;70.60;;;;;;4979953;28;20546;-68
2023/04/29 20:27:15;;;;;;;8.67;7.83;;;18.20;70.40;;;;;;4967127;28;20458;-68
2023/04/29 20:29:41;;;;;;;8.80;8.00;;;18.20;70.80;;;;;;4977704;28;20512;-68
2023/04/29 20:32:10;;;;;;;9.37;8.47;;;18.20;70.70;;;;;;4972634;28;21019;-68
2023/04/29 20:34:37;;;;;;;9.90;8.90;;;18.20;70.80;;;;;;4981790;28;20494;-68
2023/04/29 20:37:05;;;;;;;9.67;8.67;;;18.10;70.80;;;;;;4990595;28;20451;-67
2023/04/29 20:39:32;;;;;;;10.23;8.57;;;18.10;71.00;;;;;;4977299;28;20452;-68
2023/04/29 20:42:01;;;;;;;9.10;8.07;;;18.10;71.20;;;;;;4972951;28;20487;-68
2023/04/29 20:44:28;;;;;;;10.03;8.60;;;18.10;71.30;;;;;;4987234;28;20463;-68
2023/04/29 20:46:55;;;;;;;10.50;9.33;;;18.10;71.30;;;;;;4973795;28;21043;-68
2023/04/29 20:49:24;;;;;;;9.73;8.73;;;18.00;71.30;;;;;;4977405;28;20490;-67
2023/04/29 20:51:51;;;;;;;8.77;7.90;;;18.00;71.40;;;;;;4978690;28;20471;-68
2023/04/29 20:54:18;;;;;;;9.57;8.57;;;18.00;71.60;;;;;;4990949;28;20438;-68
2023/04/29 20:56:44;;;;;;;8.93;8.03;;;18.00;71.60;;;;;;4989316;28;20513;-67
2023/04/29 20:59:11;;;;;;;8.90;7.90;;;18.00;71.90;;;;;;4978105;28;20563;-68
2023/04/29 21:01:38;;;;;;;8.43;7.63;;;17.90;71.80;;;;;;4975186;28;20583;-68
2023/04/29 21:04:05;;;;;;;10.13;9.03;;;17.90;71.90;;;;;;4971846;28;20542;-68
2023/04/29 21:06:34;;;;;;;9.90;8.67;;;17.90;72.20;;;;;;4970414;28;20466;-67
2023/04/29 21:09:01;;;;;;;10.80;9.10;;;17.90;72.60;;;;;;4952704;29;21092;-68
2023/04/29 21:11:28;;;;;;;39.97;28.47;;;17.90;72.70;;;;;;4981167;28;21166;-68
2023/04/29 21:13:55;;;;;;;12.77;10.97;;;17.80;72.60;;;;;;4972150;28;20498;-68
2023/04/29 21:16:21;;;;;;;14.40;12.07;;;17.80;72.80;;;;;;4987191;28;20457;-68
2023/04/29 21:18:48;;;;;;;10.17;9.07;;;17.80;73.00;;;;;;4977785;28;20455;-68
2023/04/29 21:21:16;;;;;;;12.03;9.83;;;17.80;73.00;;;;;;4972377;28;20467;-68
2023/04/29 21:23:44;;;;;;;10.47;8.57;;;17.70;73.00;;;;;;4971339;28;20455;-68
2023/04/29 21:26:13;;;;;;;9.87;8.23;;;17.70;73.00;;;;;;4985038;28;20455;-68
2023/04/29 21:28:40;;;;;;;9.37;8.37;;;17.70;73.00;;;;;;4985958;28;20843;-68
2023/04/29 21:31:08;;;;;;;9.93;8.90;;;17.70;73.00;;;;;;4987882;28;20476;-68
2023/04/29 21:33:35;;;;;;;8.63;7.80;;;17.70;73.10;;;;;;4973243;28;20462;-68
2023/04/29 21:36:02;;;;;;;11.07;8.33;;;17.70;73.20;;;;;;4971601;28;20548;-68
2023/04/29 21:38:28;;;;;;;8.37;7.47;;;17.70;73.20;;;;;;4974349;28;20471;-67
2023/04/29 21:41:00;;;;;;;9.63;7.43;;;17.70;73.30;;;;;;4971354;28;20486;-67
2023/04/29 21:43:28;;;;;;;8.90;7.33;;;17.70;73.40;;;;;;4968955;28;20507;-68
2023/04/29 21:45:55;;;;;;;9.03;7.43;;;17.70;73.30;;;;;;4972868;28;20448;-68
2023/04/29 21:48:22;;;;;;;8.37;7.47;;;17.70;73.60;;;;;;4971941;28;20483;-68
2023/04/29 21:50:48;;;;;;;7.60;6.77;;;17.70;73.60;;;;;;4971030;28;20466;-68
2023/04/29 21:53:15;;;;;;;7.60;6.90;;;17.60;73.70;;;;;;4983558;28;20455;-68
2023/04/29 21:55:42;;;;;;;7.63;6.77;;;17.60;73.70;;;;;;4991298;28;20465;-68
2023/04/29 21:58:10;;;;;;;9.63;7.30;;;17.60;73.70;;;;;;4979129;28;20979;-69
2023/04/29 22:00:39;;;;;;;8.40;7.57;;;17.60;73.70;;;;;;4983916;28;20543;-68
2023/04/29 22:03:07;;;;;;;6.90;6.10;;;17.60;73.90;;;;;;4982068;28;21021;-68
2023/04/29 22:05:35;;;;;;;8.47;6.43;;;17.60;74.00;;;;;;4988125;28;20447;-68
2023/04/29 22:08:04;;;;;;;6.13;5.60;;;17.60;74.10;;;;;;4979902;28;20464;-68
2023/04/29 22:10:31;;;;;;;6.60;6.00;;;17.60;74.10;;;;;;4971190;28;20483;-68
2023/04/29 22:12:58;;;;;;;6.30;5.70;;;17.60;74.30;;;;;;4979176;28;20473;-68
2023/04/29 22:15:27;;;;;;;6.33;5.63;;;17.60;74.40;;;;;;4974038;28;20546;-68
2023/04/29 22:17:53;;;;;;;6.33;5.73;;;17.60;74.40;;;;;;4983048;28;20627;-68
2023/04/29 22:20:20;;;;;;;6.27;5.13;;;17.50;74.20;;;;;;4990421;28;20502;-67
2023/04/29 22:22:47;;;;;;;6.90;5.67;;;17.60;74.40;;;;;;4981208;28;20467;-68
2023/04/29 22:25:14;;;;;;;5.37;4.80;;;17.50;74.30;;;;;;4978142;28;21008;-68
2023/04/29 22:27:41;;;;;;;6.70;5.83;;;17.50;74.30;;;;;;4984704;28;20474;-68
2023/04/29 22:30:09;;;;;;;6.10;5.60;;;17.50;74.30;;;;;;4971444;28;20787;-68
2023/04/29 22:32:37;;;;;;;5.47;4.97;;;17.50;74.40;;;;;;4973387;28;20482;-68
2023/04/29 22:35:04;;;;;;;6.10;5.20;;;17.50;74.40;;;;;;4975255;28;20448;-67
2023/04/29 22:37:31;;;;;;;5.90;5.30;;;17.50;74.40;;;;;;4976599;28;20451;-68
2023/04/29 22:39:58;;;;;;;5.03;4.60;;;17.50;74.50;;;;;;4979659;28;20446;-68
2023/04/29 22:42:25;;;;;;;5.33;4.87;;;17.50;74.60;;;;;;4969249;28;20469;-68
2023/04/29 22:44:52;;;;;;;5.10;4.60;;;17.50;74.60;;;;;;4974282;28;20526;-68
2023/04/29 22:47:19;;;;;;;4.63;4.23;;;17.50;74.60;;;;;;4978893;28;20539;-68
2023/04/29 22:49:47;;;;;;;6.43;4.70;;;17.40;74.70;;;;;;4980086;28;20472;-68
2023/04/29 22:52:14;;;;;;;4.10;3.70;;;17.50;75.00;;;;;;4977507;28;20463;-68
2023/04/29 22:54:40;;;;;;;4.70;4.20;;;17.40;74.90;;;;;;4990067;28;20538;-68
2023/04/29 22:57:07;;;;;;;5.80;4.00;;;17.40;75.10;;;;;;4974780;28;20447;-68
2023/04/29 22:59:34;;;;;;;6.27;4.50;;;17.40;75.20;;;;;;4975016;28;20482;-68
2023/04/29 23:02:01;;;;;;;4.47;4.07;;;17.40;75.20;;;;;;4973616;28;20471;-68
2023/04/29 23:04:28;;;;;;;5.07;4.27;;;17.40;75.30;;;;;;4988641;28;20451;-69
2023/04/29 23:06:56;;;;;;;4.53;3.97;;;17.40;75.20;;;;;;4971686;28;20552;-69
2023/04/29 23:09:23;;;;;;;4.40;4.00;;;17.30;75.10;;;;;;4975378;28;20494;-67
2023/04/29 23:11:50;;;;;;;4.10;3.80;;;17.30;75.10;;;;;;4973875;28;20467;-66
2023/04/29 23:14:17;;;;;;;3.87;3.53;;;17.40;75.40;;;;;;4976078;28;20479;-67
2023/04/29 23:16:43;;;;;;;4.23;3.70;;;17.30;76.20;;;;;;4974480;28;20559;-67
2023/04/29 23:19:10;;;;;;;4.10;3.60;;;17.30;76.30;;;;;;4975437;28;20456;-67
2023/04/29 23:21:37;;;;;;;4.20;3.73;;;17.30;75.20;;;;;;4973487;28;20479;-67
2023/04/29 23:24:06;;;;;;;4.20;3.80;;;17.20;75.00;;;;;;4991001;28;20472;-66
2023/04/29 23:26:32;;;;;;;4.30;3.90;;;17.20;75.00;;;;;;4991373;28;20450;-66
2023/04/29 23:29:00;;;;;;;4.03;3.63;;;17.20;75.00;;;;;;4974037;28;20566;-67
2023/04/29 23:31:26;;;;;;;4.20;3.60;;;17.20;75.00;;;;;;4973940;28;20534;-67
2023/04/29 23:33:53;;;;;;;3.67;3.30;;;17.20;75.00;;;;;;4991037;28;20470;-66
2023/04/29 23:36:20;;;;;;;4.33;3.47;;;17.20;75.20;;;;;;4973991;28;20466;-67
2023/04/29 23:38:47;;;;;;;3.67;3.37;;;17.20;75.90;;;;;;4978318;28;20543;-67
2023/04/29 23:41:15;;;;;;;4.37;3.97;;;17.20;75.00;;;;;;4979935;28;20466;-66
2023/04/29 23:43:42;;;;;;;4.23;3.60;;;17.20;75.20;;;;;;4979249;28;20458;-66
2023/04/29 23:46:09;;;;;;;5.37;3.87;;;17.20;75.40;;;;;;4990198;28;20574;-67
2023/04/29 23:48:36;;;;;;;3.87;3.43;;;17.20;75.50;;;;;;4985975;28;20455;-66
2023/04/29 23:51:02;;;;;;;3.90;3.60;;;17.20;75.50;;;;;;4973401;28;20489;-67
2023/04/29 23:53:29;;;;;;;3.53;3.23;;;17.20;75.40;;;;;;4984967;28;20455;-67
2023/04/29 23:55:56;;;;;;;3.67;3.37;;;17.20;75.40;;;;;;4975652;28;20476;-66
2023/04/29 23:58:25;;;;;;;3.70;3.40;;;17.20;75.20;;;;;;4973993;28;20482;-67
